Time;durP1;ratioP1;P1;durP2;ratioP2;P2;SDS_P1;SDS_P2;PMS_P1;PMS_P2;Temp;Humidity;BMP_temperature;BMP_pressure;BME280_temperature;BME280_humidity;BME280_pressure;Samples;Min_cycle;Max_cycle;Signal;HPM_P1;HPM_P2
2023/09/24 00:03:57;;;;;;;1.48;1.05;;;;;;;21.44;49.75;93910.41;6066432;23;20031;-93
2023/09/24 00:06:56;;;;;;;1.25;0.60;;;;;;;21.46;49.84;93918.88;6051884;23;20018;-93
2023/09/24 00:12:27;;;;;;;2.22;1.10;;;;;;;21.47;49.63;93925.88;6048381;23;20030;-93
2023/09/24 00:15:10;;;;;;;1.27;0.60;;;;;;;21.47;49.54;93920.38;6037235;23;20461;-93
2023/09/24 00:17:53;;;;;;;0.80;0.68;;;;;;;21.47;49.52;93923.88;5992663;23;20073;-94
2023/09/24 00:20:30;;;;;;;2.00;0.80;;;;;;;21.48;49.48;93927.34;5965421;23;20024;-93
2023/09/24 00:26:24;;;;;;;1.50;0.85;;;;;;;21.45;50.06;93936.66;6125470;23;20029;-93
2023/09/24 00:29:20;;;;;;;;;;;;;;;;;;;;;
2023/09/24 00:32:20;;;;;;;;;;;;;;;;;;;;;
2023/09/24 00:35:13;;;;;;;1.55;0.65;;;;;;;21.44;50.04;93951.66;6077045;23;20452;-93
2023/09/24 00:37:57;;;;;;;1.05;0.85;;;;;;;21.41;50.08;93939.72;6056381;23;20028;-93
2023/09/24 00:40:51;;;;;;;1.80;0.80;;;;;;;21.40;50.01;93929.22;5955201;23;20093;-93
2023/09/24 00:44:00;;;;;;;0.43;0.43;;;;;;;21.40;49.97;93924.47;6015774;23;20022;-93
2023/09/24 00:47:08;;;;;;;0.85;0.45;;;;;;;21.41;49.94;93922.47;6014439;23;20923;-93
2023/09/24 00:52:40;;;;;;;1.20;0.60;;;;;;;21.46;49.81;93932.63;6105385;23;20035;-92
2023/09/24 00:58:35;;;;;;;;;;;;;;;;;;;;;
2023/09/24 01:01:14;;;;;;;0.93;0.57;;;;;;;21.43;49.95;93941.94;6029304;23;20711;-93
2023/09/24 01:04:23;;;;;;;1.02;0.70;;;;;;;21.42;50.08;93938.44;5888515;23;20023;-93
2023/09/24 01:09:48;;;;;;;0.90;0.60;;;;;;;21.42;50.26;93940.44;6105456;23;20028;-94
2023/09/24 01:12:45;;;;;;;1.25;0.50;;;;;;;21.44;49.76;93949.66;5973031;23;20035;-94
2023/09/24 01:15:22;;;;;;;1.42;0.68;;;;;;;21.45;49.52;93953.88;6078538;23;20026;-93
2023/09/24 01:18:01;;;;;;;0.75;0.60;;;;;;;21.43;49.56;93961.19;6079521;23;20089;-94
2023/09/24 01:20:44;;;;;;;0.73;0.50;;;;;;;21.43;49.49;93964.69;6019765;23;20019;-93
2023/09/24 01:23:29;;;;;;;0.77;0.40;;;;;;;21.42;49.68;93962.47;6036534;23;20396;-93
2023/09/24 01:30:08;;;;;;;0.95;0.63;;;;;;;21.41;49.68;93952.72;5850266;24;20022;-93
2023/09/24 01:33:07;;;;;;;0.45;0.45;;;;;;;21.40;49.78;93954.72;5838225;24;20036;-93
2023/09/24 01:35:59;;;;;;;0.73;0.60;;;;;;;21.40;49.65;93957.47;5806261;24;20101;-93
2023/09/24 01:38:47;;;;;;;1.35;0.75;;;;;;;21.43;49.64;93953.69;6024546;23;20025;-93
2023/09/24 01:41:54;;;;;;;;;;;;;;;;;;;;;
2023/09/24 01:44:40;;;;;;;0.80;0.57;;;;;;;21.40;49.84;93973.97;5976686;23;20033;-93
2023/09/24 01:47:48;;;;;;;1.23;0.68;;;;;;;21.38;50.03;93968.25;5952576;23;20022;-94
2023/09/24 01:50:54;;;;;;;1.20;0.63;;;;;;;21.43;49.63;93977.69;6015505;23;20082;-93
2023/09/24 01:54:10;;;;;;;1.15;0.60;;;;;;;21.41;49.65;93974.72;6014163;23;20022;-93
2023/09/24 01:57:07;;;;;;;0.70;0.50;;;;;;;21.39;49.66;93972.47;5944249;24;20024;-92
2023/09/24 01:59:50;;;;;;;0.98;0.60;;;;;;;21.41;49.57;93971.97;5899942;24;20068;-93
2023/09/24 02:03:16;;;;;;;1.65;0.93;;;;;;;21.41;49.35;93978.22;5843827;24;20022;-93
2023/09/24 02:06:52;;;;;;;1.13;0.68;;;;;;;21.41;49.37;93974.72;5810466;24;20038;-93
2023/09/24 02:09:49;;;;;;;1.52;0.68;;;;;;;21.40;49.78;93978.72;5670244;25;20065;-93
2023/09/24 02:18:05;;;;;;;0.95;0.60;;;;;;;21.42;49.30;93985.22;6124144;23;20017;-92
2023/09/24 02:21:05;;;;;;;0.43;0.40;;;;;;;21.40;49.57;93979.47;5962862;23;20107;-92
2023/09/24 02:24:14;;;;;;;0.55;0.47;;;;;;;21.40;49.48;93981.47;5988548;23;20027;-93
2023/09/24 02:27:11;;;;;;;0.93;0.60;;;;;;;21.43;49.37;93983.94;6043141;23;20033;-93
2023/09/24 02:30:10;;;;;;;1.05;0.60;;;;;;;21.43;49.44;93988.69;6003822;23;20019;-93
2023/09/24 02:32:57;;;;;;;1.35;0.63;;;;;;;21.38;49.75;93982.00;5967012;23;20037;-93
2023/09/24 02:35:49;;;;;;;0.90;0.55;;;;;;;21.39;49.62;93985.50;6003636;23;20022;-93
2023/09/24 02:38:30;;;;;;;1.30;0.80;;;;;;;21.39;49.79;93989.00;6014734;23;20256;-94
2023/09/24 02:41:40;;;;;;;2.47;0.80;;;;;;;21.38;49.66;93984.75;5992206;23;20054;-92
2023/09/24 02:44:20;;;;;;;1.85;1.48;;;;;;;21.38;49.66;93992.25;6032668;23;20086;-93
2023/09/24 02:46:59;;;;;;;1.13;0.80;;;;;;;21.37;49.53;93986.00;6023240;23;20018;-93
2023/09/24 02:49:45;;;;;;;0.60;0.45;;;;;;;21.37;49.60;93991.50;6075811;23;20038;-92
2023/09/24 02:53:13;;;;;;;1.15;0.70;;;;;;;21.38;49.56;93990.25;6062593;23;20030;-93
2023/09/24 02:55:53;;;;;;;2.67;0.70;;;;;;;21.39;49.37;93991.75;5907786;24;20023;-93
2023/09/24 02:58:34;;;;;;;1.13;0.70;;;;;;;21.38;49.33;93993.00;6035187;23;20046;-93
2023/09/24 03:01:46;;;;;;;1.58;0.70;;;;;;;21.37;49.86;94002.50;5986482;23;20035;-93
2023/09/24 03:04:21;;;;;;;1.20;0.70;;;;;;;21.38;49.69;93997.75;5895090;24;20024;-93
2023/09/24 03:07:19;;;;;;;0.75;0.57;;;;;;;21.38;49.66;94000.50;5866446;24;20021;-92
2023/09/24 03:15:29;;;;;;;1.00;0.70;;;;;;;21.38;49.59;93986.75;6114106;23;20022;-93
2023/09/24 03:18:18;;;;;;;0.88;0.70;;;;;;;21.35;49.58;93999.53;5982341;23;20087;-93
2023/09/24 03:23:57;;;;;;;0.90;0.40;;;;;;;21.36;49.59;94005.78;6131016;23;20034;-92
2023/09/24 03:27:02;;;;;;;0.80;0.60;;;;;;;21.34;49.59;94008.28;6086825;23;20105;-92
2023/09/24 03:30:03;;;;;;;1.10;0.70;;;;;;;21.35;49.58;94009.78;6072387;23;20053;-93
2023/09/24 03:32:44;;;;;;;;;;;;;;;21.36;49.38;94011.28;5986656;23;20027;-93
2023/09/24 03:35:29;;;;;;;0.63;0.43;;;;;;;21.32;49.93;94010.81;6057259;23;19917;-92
2023/09/24 03:40:57;;;;;;;1.73;0.63;;;;;;;21.35;49.42;94016.03;6089718;23;20012;-93
2023/09/24 03:43:58;;;;;;;1.92;0.77;;;;;;;21.35;49.47;94013.28;5952568;23;20021;-93
2023/09/24 03:49:47;;;;;;;1.10;0.73;;;;;;;21.34;49.62;94024.78;5922680;24;20041;-94
2023/09/24 03:52:44;;;;;;;1.30;0.50;;;;;;;21.34;49.41;94019.28;5857508;24;20021;-94
2023/09/24 03:55:47;;;;;;;0.95;0.68;;;;;;;21.35;49.21;94021.53;5796718;24;20029;-93
2023/09/24 03:58:34;;;;;;;1.10;0.50;;;;;;;21.33;49.34;94035.03;5827242;24;20025;-93
2023/09/24 04:01:43;;;;;;;1.02;0.50;;;;;;;21.33;49.18;94034.31;5854093;24;20029;-93
2023/09/24 04:04:54;;;;;;;0.50;0.40;;;;;;;21.34;49.17;94036.53;5821067;24;20041;-94
2023/09/24 04:08:08;;;;;;;1.30;0.50;;;;;;;21.34;49.23;94041.28;5871326;24;20034;-93
2023/09/24 04:13:17;;;;;;;0.68;0.60;;;;;;;21.31;49.44;94054.06;6107732;23;20021;-93
2023/09/24 04:15:57;;;;;;;0.50;0.47;;;;;;;21.30;49.81;94049.81;6040826;23;20022;-92
2023/09/24 04:19:33;;;;;;;;;;;;;;;;;;;;;
2023/09/24 04:24:56;;;;;;;1.05;0.52;;;;;;;21.31;49.17;94053.31;6129287;23;20036;-93
2023/09/24 04:27:45;;;;;;;1.23;0.68;;;;;;;21.31;49.17;94056.06;6056223;23;20022;-93
2023/09/24 04:30:18;;;;;;;2.00;0.80;;;;;;;21.30;49.31;94055.31;5954738;23;20093;-93
2023/09/24 04:33:18;;;;;;;0.93;0.63;;;;;;;21.27;49.59;94064.59;6045798;23;20014;-93
2023/09/24 04:36:15;;;;;;;1.10;0.70;;;;;;;21.29;49.42;94064.81;6073143;23;20015;-93
2023/09/24 04:41:57;;;;;;;1.13;0.50;;;;;;;21.29;49.52;94075.84;6153207;23;20021;-93
2023/09/24 04:50:25;;;;;;;0.95;0.50;;;;;;;;;;6124404;23;20108;-93
2023/09/24 04:53:13;;;;;;;0.63;0.60;;;;;;;21.28;49.28;94087.34;6071837;23;20097;-92
2023/09/24 04:55:57;;;;;;;0.57;0.55;;;;;;;21.25;49.45;94085.63;6099642;23;20081;-92
2023/09/24 04:59:19;;;;;;;0.57;0.40;;;;;;;21.27;49.20;94094.84;6083269;23;20028;-93
2023/09/24 05:02:18;;;;;;;0.93;0.60;;;;;;;21.29;49.24;94091.59;5978742;23;20109;-92
2023/09/24 05:08:05;;;;;;;1.05;0.77;;;;;;;;;;6141531;23;20025;-93
2023/09/24 05:10:54;;;;;;;1.30;0.68;;;;;;;21.21;49.87;94091.41;6098966;22;20039;-92
2023/09/24 05:13:54;;;;;;;;;;;;;;;;;;;;;
2023/09/24 05:16:26;;;;;;;0.52;0.52;;;;;;;21.23;49.74;94102.63;5886658;23;20044;-94
2023/09/24 05:19:21;;;;;;;0.43;0.43;;;;;;;21.22;49.55;94111.41;5916780;24;20020;-93
2023/09/24 05:22:28;;;;;;;1.02;0.70;;;;;;;21.25;49.56;94107.63;5857915;24;20076;-93
2023/09/24 05:25:29;;;;;;;;;;;;;;;;;;;;;
2023/09/24 05:28:15;;;;;;;0.70;0.40;;;;;;;21.23;49.37;94112.88;5871315;24;20298;-93
2023/09/24 05:31:28;;;;;;;;;;;;;;;;;;;;;
2023/09/24 05:34:12;;;;;;;0.75;0.52;;;;;;;21.23;49.39;94110.88;5742256;23;20672;-93
2023/09/24 05:37:08;;;;;;;0.80;0.50;;;;;;;21.26;49.55;94120.84;6060350;23;20096;-93
2023/09/24 05:40:14;;;;;;;1.13;0.70;;;;;;;21.27;49.20;94119.59;6030722;23;20014;-93
2023/09/24 05:43:01;;;;;;;0.88;0.60;;;;;;;21.29;49.24;94127.34;6011923;23;20094;-93
2023/09/24 05:51:43;;;;;;;1.40;0.80;;;;;;;21.29;49.09;94136.34;6039440;23;20079;-92
2023/09/24 05:54:18;;;;;;;1.30;0.60;;;;;;;21.28;49.40;94142.34;6003865;23;20022;-92
2023/09/24 06:00:13;;;;;;;0.45;0.40;;;;;;;21.27;49.32;94133.34;5907925;24;20034;-94
2023/09/24 06:05:30;;;;;;;1.30;0.70;;;;;;;21.27;49.22;94151.84;6107383;23;20026;-94
2023/09/24 06:08:37;;;;;;;0.63;0.50;;;;;;;21.26;49.14;94151.09;6054517;23;20027;-93
2023/09/24 06:11:12;;;;;;;1.15;0.70;;;;;;;21.28;49.29;94147.84;5926805;23;20023;-93
2023/09/24 06:16:18;;;;;;;0.50;0.30;;;;;;;21.27;49.22;94149.09;6103561;23;20030;-93
2023/09/24 06:21:45;;;;;;;0.85;0.57;;;;;;;21.27;49.39;94158.09;6120290;22;20027;-92
2023/09/24 06:24:36;;;;;;;0.90;0.60;;;;;;;21.28;49.28;94159.59;5950115;23;20691;-93
2023/09/24 06:27:28;;;;;;;0.82;0.50;;;;;;;21.26;49.32;94164.84;6050093;23;20014;-93
2023/09/24 06:30:05;;;;;;;0.93;0.63;;;;;;;21.24;49.36;94161.88;6000183;23;20034;-93
2023/09/24 06:33:19;;;;;;;;;;;;;;;;;;;;;
2023/09/24 06:36:02;;;;;;;1.55;0.70;;;;;;;21.27;49.67;94168.34;5954870;23;20461;-93
2023/09/24 06:38:52;;;;;;;;;;;;;;;21.30;49.38;94172.81;6107368;23;20040;-92
2023/09/24 06:41:25;;;;;;;;;;;;;;;21.30;49.43;94168.06;6062493;23;19941;-93
2023/09/24 06:44:10;;;;;;;1.35;0.50;;;;;;;21.28;49.44;94176.09;6108776;23;19921;-94
2023/09/24 06:46:58;;;;;;;0.43;0.40;;;;;;;21.28;49.57;94178.84;6045074;23;20029;-93
2023/09/24 06:49:39;;;;;;;0.80;0.52;;;;;;;21.30;49.24;94172.81;5987908;23;20382;-93
2023/09/24 06:52:30;;;;;;;0.93;0.50;;;;;;;21.29;49.78;94172.09;6029313;23;20022;-93
2023/09/24 06:55:09;;;;;;;0.90;0.68;;;;;;;21.31;49.49;94177.06;5956776;23;20040;-93
2023/09/24 06:58:33;;;;;;;0.50;0.50;;;;;;;21.32;49.50;94176.56;5983027;23;20116;-92
2023/09/24 07:01:22;;;;;;;1.52;0.60;;;;;;;21.35;49.27;94183.78;5959303;23;20023;-92
2023/09/24 07:04:17;;;;;;;1.13;0.55;;;;;;;21.36;49.36;94188.03;6005463;23;20310;-92
2023/09/24 07:06:46;;;;;;;1.15;0.57;;;;;;;21.36;49.19;94184.53;6024129;23;20019;-93
2023/09/24 07:09:51;;;;;;;0.90;0.40;;;;;;;21.38;49.37;94188.28;5931132;23;20071;-93
2023/09/24 07:12:44;;;;;;;0.77;0.50;;;;;;;21.40;49.26;94193.28;5976805;23;20089;-93
2023/09/24 07:15:31;;;;;;;1.45;0.65;;;;;;;21.42;49.26;94188.00;6076895;23;20432;-93
2023/09/24 07:18:11;;;;;;;1.70;0.70;;;;;;;21.42;49.32;94188.00;6112913;23;20105;-93
2023/09/24 07:21:32;;;;;;;0.53;0.40;;;;;;;21.44;49.05;94190.97;6026284;23;20324;-93
2023/09/24 07:24:40;;;;;;;1.42;0.50;;;;;;;21.44;49.38;94188.97;5957293;23;20040;-92
2023/09/24 07:27:17;;;;;;;0.75;0.50;;;;;;;21.45;49.05;94200.72;5990592;23;20083;-93
2023/09/24 07:29:53;;;;;;;0.82;0.50;;;;;;;21.44;49.22;94199.97;5851589;23;20023;-93
2023/09/24 07:32:47;;;;;;;1.05;0.57;;;;;;;21.45;49.25;94203.47;5927347;23;20020;-93
2023/09/24 07:35:56;;;;;;;0.88;0.40;;;;;;;21.46;49.13;94202.22;5970722;23;20034;-92
2023/09/24 07:39:15;;;;;;;2.28;0.80;;;;;;;21.47;49.23;94189.94;5888161;24;20021;-93
2023/09/24 07:41:50;;;;;;;1.50;0.43;;;;;;;21.49;49.21;94206.69;5827624;24;20138;-93
2023/09/24 07:44:20;;;;;;;0.88;0.50;;;;;;;21.49;49.14;94203.94;5979057;23;20050;-93
2023/09/24 07:47:14;;;;;;;1.33;0.50;;;;;;;21.49;49.19;94206.69;6029058;23;20082;-93
2023/09/24 07:49:53;;;;;;;0.43;0.32;;;;;;;21.50;49.09;94208.19;6069747;23;20111;-93
2023/09/24 07:52:28;;;;;;;1.10;0.47;;;;;;;21.53;49.13;94224.41;6035710;23;20023;-92
2023/09/24 07:55:25;;;;;;;0.85;0.50;;;;;;;21.53;49.09;94218.16;5945537;23;20024;-93
2023/09/24 07:58:25;;;;;;;0.30;0.30;;;;;;;21.55;48.87;94215.66;5937063;23;20399;-94
2023/09/24 08:01:22;;;;;;;1.17;0.50;;;;;;;21.54;48.91;94214.91;5968594;23;20027;-94
2023/09/24 08:04:12;;;;;;;1.10;0.55;;;;;;;21.54;49.05;94214.91;5898475;24;20024;-92
2023/09/24 08:07:01;;;;;;;;;;;;;;;;;;;;;
2023/09/24 08:13:08;;;;;;;0.77;0.38;;;;;;;21.58;48.98;94216.63;5865590;24;20099;-93
2023/09/24 08:18:35;;;;;;;0.43;0.43;;;;;;;21.59;48.74;94229.13;6128232;23;20032;-92
2023/09/24 08:21:38;;;;;;;0.90;0.60;;;;;;;21.59;48.94;94223.63;6113103;23;20048;-94
2023/09/24 08:24:46;;;;;;;0.52;0.40;;;;;;;21.60;49.16;94225.13;6033215;23;20083;-93
2023/09/24 08:27:55;;;;;;;0.82;0.45;;;;;;;21.61;48.80;94223.88;5903525;23;20024;-93
2023/09/24 08:30:39;;;;;;;0.63;0.45;;;;;;;21.62;49.08;94222.63;5911855;23;21648;-92
2023/09/24 08:33:33;;;;;;;0.45;0.43;;;;;;;21.62;48.73;94220.59;6028765;23;20366;-93
2023/09/24 08:36:19;;;;;;;1.02;0.47;;;;;;;21.63;48.76;94219.34;6098354;23;20033;-92
2023/09/24 08:39:19;;;;;;;0.88;0.50;;;;;;;21.62;48.88;94212.34;5972519;23;20117;-92
2023/09/24 08:42:30;;;;;;;0.68;0.50;;;;;;;21.63;48.91;94221.34;5988678;23;20459;-93
2023/09/24 08:45:36;;;;;;;;;;;;;;;;;;;;;
2023/09/24 08:48:16;;;;;;;0.63;0.35;;;;;;;21.61;48.94;94215.63;6029933;23;20714;-93
2023/09/24 08:51:10;;;;;;;0.70;0.40;;;;;;;21.61;48.96;94218.38;6009599;23;20055;-93
2023/09/24 08:55:06;;;;;;;0.95;0.52;;;;;;;21.62;48.86;94211.59;5969398;23;20024;-92
2023/09/24 08:58:06;;;;;;;1.00;0.50;;;;;;;21.61;48.99;94223.88;5840009;24;20060;-93
2023/09/24 09:01:05;;;;;;;0.85;0.43;;;;;;;21.60;48.84;94225.88;5844209;24;20017;-93
2023/09/24 09:04:10;;;;;;;1.33;0.65;;;;;;;21.63;48.80;94219.34;5795639;24;20192;-94
2023/09/24 09:06:52;;;;;;;8.70;1.08;;;;;;;21.65;48.71;94230.56;5841197;24;20034;-93
2023/09/24 09:09:53;;;;;;;3.38;0.60;;;;;;;21.67;48.72;94224.56;5799351;24;20022;-93
2023/09/24 09:12:21;;;;;;;1.17;0.43;;;;;;;21.66;48.67;94221.06;5846046;24;20027;-92
2023/09/24 09:15:29;;;;;;;5.32;3.10;;;;;;;21.66;48.68;94223.06;5833725;24;20041;-93
2023/09/24 09:18:34;;;;;;;1.70;1.35;;;;;;;21.65;48.68;94222.31;5890095;24;20404;-94
2023/09/24 09:21:00;;;;;;;53.20;41.55;;;;;;;21.65;48.81;94229.84;5778271;24;20029;-91
2023/09/24 09:23:45;;;;;;;9.07;6.47;;;;;;;21.64;48.97;94225.59;5812932;24;20046;-93
2023/09/24 09:26:11;;;;;;;7.93;6.57;;;;;;;21.65;48.87;94214.06;5873968;23;20061;-92
2023/09/24 09:31:55;;;;;;;14.55;11.38;;;;;;;21.67;48.95;94219.03;6126407;23;20028;-94
2023/09/24 09:34:23;;;;;;;21.75;17.25;;;;;;;21.66;48.81;94223.06;5977568;23;20002;-93
2023/09/24 09:36:55;;;;;;;;;;;;;;;21.68;48.90;94220.53;6080841;23;20047;-92
2023/09/24 09:39:21;;;;;;;25.15;15.00;;;;;;;21.65;48.99;94222.31;6072243;23;19997;-92
2023/09/24 09:41:48;;;;;;;13.73;7.57;;;;;;;21.60;49.17;94225.88;6023539;23;20019;-92
2023/09/24 09:44:25;;;;;;;21.92;14.05;;;;;;;21.63;49.02;94224.09;6011882;23;20030;-92
2023/09/24 09:46:53;;;;;;;22.20;14.25;;;;;;;21.63;48.88;94230.34;6042164;23;20020;-92
2023/09/24 09:49:19;;;;;;;18.95;13.27;;;;;;;21.64;48.92;94228.34;6009951;23;20099;-94
2023/09/24 09:51:49;;;;;;;11.07;7.38;;;;;;;21.64;49.00;94212.59;5964552;24;20025;-93
2023/09/24 09:54:18;;;;;;;15.60;11.20;;;;;;;21.65;48.99;94216.09;5907509;24;20049;-92
2023/09/24 09:56:45;;;;;;;16.83;11.55;;;;;;;21.64;49.17;94217.34;5938435;24;20085;-93
2023/09/24 09:59:12;;;;;;;13.68;9.57;;;;;;;21.64;49.19;94222.84;6050761;23;20029;-92
2023/09/24 10:01:39;;;;;;;10.65;7.85;;;;;;;21.62;49.21;94220.59;6089696;23;20026;-92
2023/09/24 10:04:08;;;;;;;6.63;4.20;;;;;;;21.63;49.26;94227.59;6080939;23;20022;-93
2023/09/24 10:06:37;;;;;;;11.05;7.70;;;;;;;21.64;49.21;94237.34;6093066;23;20018;-92
2023/09/24 10:09:47;;;;;;;9.35;7.47;;;;;;;21.66;49.04;94229.31;6022470;23;20033;-92
2023/09/24 10:12:42;;;;;;;7.47;5.78;;;;;;;21.64;49.03;94225.59;5940322;24;20025;-92
2023/09/24 10:15:26;;;;;;;6.68;5.50;;;;;;;21.64;48.74;94220.84;5961007;24;20103;-92
2023/09/24 10:18:19;;;;;;;8.02;6.18;;;;;;;21.64;48.99;94222.84;5929497;24;20391;-93
2023/09/24 10:21:01;;;;;;;7.60;5.95;;;;;;;21.64;49.03;94209.09;5931842;24;20052;-92
2023/09/24 10:23:35;;;;;;;6.55;5.38;;;;;;;21.64;48.99;94217.34;5959135;24;20189;-93
2023/09/24 10:26:02;;;;;;;7.85;6.40;;;;;;;21.63;49.01;94219.34;5938940;24;20024;-93
2023/09/24 10:28:47;;;;;;;6.80;6.00;;;;;;;21.64;48.90;94233.84;5937205;24;20025;-93
2023/09/24 10:31:13;;;;;;;8.88;5.38;;;;;;;21.64;49.01;94220.09;6035289;23;20033;-93
2023/09/24 10:33:58;;;;;;;6.72;5.47;;;;;;;21.64;48.93;94204.34;6103585;23;20022;-93
2023/09/24 10:36:32;;;;;;;8.23;4.55;;;;;;;21.70;48.91;94207.03;6101915;23;20058;-92
2023/09/24 10:39:03;;;;;;;9.00;5.80;;;;;;;21.65;49.06;94224.34;6061559;23;20030;-92
2023/09/24 10:42:07;;;;;;;6.70;5.43;;;;;;;21.65;49.05;94210.59;6019841;23;20667;-94
2023/09/24 10:44:35;;;;;;;5.35;4.18;;;;;;;21.64;49.15;94215.34;6081027;23;20101;-92
2023/09/24 10:47:24;;;;;;;5.68;4.57;;;;;;;21.64;49.24;94225.59;6040096;23;20067;-93
2023/09/24 10:49:51;;;;;;;5.35;3.95;;;;;;;21.65;49.12;94219.56;6067806;23;20036;-92
2023/09/24 10:52:21;;;;;;;5.35;4.53;;;;;;;21.67;48.97;94217.03;6055445;23;20038;-93
2023/09/24 10:55:03;;;;;;;5.93;4.68;;;;;;;21.65;48.88;94224.34;6022768;23;20060;-92
2023/09/24 10:57:30;;;;;;;5.68;4.15;;;;;;;21.67;49.02;94222.53;6021732;23;20027;-92
2023/09/24 10:59:57;;;;;;;4.35;3.92;;;;;;;21.63;48.85;94219.34;6032573;23;20564;-93
2023/09/24 11:02:26;;;;;;;9.57;4.35;;;;;;;21.64;48.96;94223.59;5999925;23;20019;-92
2023/09/24 11:05:03;;;;;;;4.88;3.85;;;;;;;21.64;49.10;94215.34;6000593;23;20019;-92
2023/09/24 11:07:38;;;;;;;5.63;3.75;;;;;;;21.66;48.99;94225.81;5999895;23;20042;-93
2023/09/24 11:10:07;;;;;;;3.88;3.17;;;;;;;21.65;49.10;94222.31;5977488;23;20015;-93
2023/09/24 11:12:32;;;;;;;5.18;4.00;;;;;;;21.64;49.13;94209.09;5991610;23;20019;-94
2023/09/24 11:15:10;;;;;;;4.72;3.67;;;;;;;21.65;49.28;94213.34;5968773;23;20055;-92
2023/09/24 11:17:38;;;;;;;4.07;3.13;;;;;;;21.66;48.99;94212.78;5977181;23;20027;-92
2023/09/24 11:20:11;;;;;;;4.65;3.25;;;;;;;21.66;49.16;94209.28;6006134;23;20027;-92
2023/09/24 11:22:40;;;;;;;4.82;3.78;;;;;;;21.68;49.00;94215.03;6055010;23;20026;-92
2023/09/24 11:25:07;;;;;;;4.72;3.60;;;;;;;21.69;48.82;94224.78;5971802;23;20020;-92
2023/09/24 11:27:53;;;;;;;4.25;3.38;;;;;;;21.69;49.02;94222.03;5967518;23;20028;-92
2023/09/24 11:30:28;;;;;;;4.28;3.20;;;;;;;21.65;49.11;94225.06;5945460;23;20039;-92
2023/09/24 11:32:54;;;;;;;3.53;3.10;;;;;;;21.70;48.76;94224.28;6038948;23;20055;-92
2023/09/24 11:35:21;;;;;;;4.40;3.38;;;;;;;21.67;49.21;94228.06;5945506;23;20055;-92
2023/09/24 11:37:53;;;;;;;5.55;3.88;;;;;;;21.68;48.83;94221.28;6021964;23;20063;-93
2023/09/24 11:40:24;;;;;;;3.65;2.92;;;;;;;21.67;49.10;94214.28;6000513;23;20057;-92
2023/09/24 11:42:51;;;;;;;3.97;3.30;;;;;;;21.65;49.05;94222.31;6058996;23;20434;-92
2023/09/24 11:45:42;;;;;;;4.70;3.00;;;;;;;21.66;48.99;94225.81;6080747;23;20078;-92
2023/09/24 11:48:10;;;;;;;4.40;3.20;;;;;;;21.70;48.91;94218.03;6081785;23;20079;-92
2023/09/24 11:50:39;;;;;;;4.85;3.42;;;;;;;21.67;49.13;94219.78;6058597;23;20261;-93
2023/09/24 11:53:06;;;;;;;5.85;3.95;;;;;;;21.68;48.88;94226.78;6075154;23;20033;-93
2023/09/24 11:55:31;;;;;;;3.63;2.70;;;;;;;21.65;48.87;94219.56;6078055;23;20479;-93
2023/09/24 11:58:08;;;;;;;4.72;3.55;;;;;;;21.67;48.89;94219.03;6053755;23;20026;-92
2023/09/24 12:00:45;;;;;;;4.97;3.30;;;;;;;21.69;49.13;94216.53;6017645;23;20018;-92
2023/09/24 12:03:17;;;;;;;4.35;3.25;;;;;;;21.65;49.18;94211.31;6025530;23;20028;-93
2023/09/24 12:05:44;;;;;;;6.43;2.75;;;;;;;21.71;48.95;94216.78;6031629;23;20074;-91
2023/09/24 12:08:10;;;;;;;4.88;2.90;;;;;;;21.70;48.82;94212.53;6073815;23;20022;-93
2023/09/24 12:10:40;;;;;;;2.95;2.55;;;;;;;21.65;49.16;94203.06;6117806;23;20034;-90
2023/09/24 12:13:11;;;;;;;3.35;3.00;;;;;;;21.66;49.06;94207.28;6109893;23;20013;-90
2023/09/24 12:15:36;;;;;;;3.15;2.70;;;;;;;21.65;49.11;94210.59;6090732;23;20032;-93
2023/09/24 12:18:11;;;;;;;4.35;3.05;;;;;;;21.67;49.06;94210.78;6060176;23;20081;-93
2023/09/24 12:20:43;;;;;;;4.07;3.25;;;;;;;21.71;48.83;94205.75;6135875;23;20022;-92
2023/09/24 12:23:11;;;;;;;4.57;2.70;;;;;;;21.66;49.35;94201.03;6109401;23;20451;-93
2023/09/24 12:25:46;;;;;;;3.80;2.88;;;;;;;21.68;48.94;94193.78;6063404;23;20022;-94
2023/09/24 12:28:16;;;;;;;5.15;3.63;;;;;;;21.68;48.86;94187.53;6062249;23;20018;-93
2023/09/24 12:30:43;;;;;;;4.00;2.80;;;;;;;21.66;48.97;94190.78;6028132;23;20007;-92
2023/09/24 12:33:09;;;;;;;3.28;2.65;;;;;;;21.69;48.92;94178.75;6024045;23;20261;-93
2023/09/24 12:36:04;;;;;;;4.50;3.00;;;;;;;21.70;48.62;94194.00;6045900;23;20025;-91
2023/09/24 12:38:35;;;;;;;3.53;2.83;;;;;;;21.67;48.98;94194.28;5967547;23;20099;-93
2023/09/24 12:41:33;;;;;;;3.40;2.60;;;;;;;21.69;48.81;94189.75;5974010;23;20039;-92
2023/09/24 12:44:03;;;;;;;3.70;2.78;;;;;;;21.67;49.01;94192.28;6055272;23;20043;-93
2023/09/24 12:49:10;;;;;;;3.25;2.63;;;;;;;21.65;49.02;94197.53;6030027;23;20479;-93
2023/09/24 12:51:37;;;;;;;4.40;3.38;;;;;;;21.69;48.94;94195.25;5992927;23;20038;-93
2023/09/24 12:54:17;;;;;;;3.70;2.60;;;;;;;21.66;49.03;94196.28;6026638;23;20034;-93
2023/09/24 12:57:05;;;;;;;2.92;2.38;;;;;;;21.67;48.85;94194.28;6029348;23;20027;-93
2023/09/24 12:59:35;;;;;;;3.38;2.78;;;;;;;21.69;48.59;94186.25;6060251;23;20015;-92
2023/09/24 13:02:02;;;;;;;3.47;2.85;;;;;;;21.71;48.63;94181.75;6015712;23;20023;-93
2023/09/24 13:04:53;;;;;;;3.58;2.90;;;;;;;21.68;48.82;94184.78;6051831;23;20031;-92
2023/09/24 13:07:23;;;;;;;3.42;2.45;;;;;;;21.67;48.73;94191.53;6030502;23;20019;-93
2023/09/24 13:09:54;;;;;;;3.38;2.40;;;;;;;21.69;49.00;94194.53;6032975;23;20015;-94
2023/09/24 13:12:21;;;;;;;3.60;2.83;;;;;;;21.68;48.86;94195.78;6056557;23;20019;-93
2023/09/24 13:14:48;;;;;;;4.30;2.63;;;;;;;21.69;48.72;94187.00;6059398;23;20074;-91
2023/09/24 13:17:14;;;;;;;3.55;2.60;;;;;;;21.70;48.59;94188.50;6005681;23;20026;-92
2023/09/24 13:19:52;;;;;;;3.45;2.67;;;;;;;21.70;48.57;94190.50;6050968;23;20025;-90
2023/09/24 13:22:33;;;;;;;3.38;2.65;;;;;;;21.68;48.89;94193.03;5948399;24;20024;-93
2023/09/24 13:24:59;;;;;;;3.08;2.35;;;;;;;21.72;48.55;94188.00;5946118;23;20024;-91
2023/09/24 13:27:56;;;;;;;4.47;2.97;;;;;;;21.69;48.65;94178.75;5974154;23;20047;-93
2023/09/24 13:30:33;;;;;;;2.80;2.10;;;;;;;21.68;48.65;94165.50;5914869;24;20112;-92
2023/09/24 13:33:02;;;;;;;4.38;3.05;;;;;;;21.67;48.66;94164.00;5896713;24;20053;-93
2023/09/24 13:35:46;;;;;;;3.25;2.30;;;;;;;21.68;48.76;94171.75;5894826;24;20112;-94
2023/09/24 13:38:17;;;;;;;3.33;2.90;;;;;;;21.67;48.45;94164.00;5866104;24;20025;-93
2023/09/24 13:40:56;;;;;;;4.97;2.83;;;;;;;21.70;48.95;94163.72;5926593;24;20017;-93
2023/09/24 13:43:25;;;;;;;3.83;2.67;;;;;;;21.69;48.87;94165.00;5937621;24;20017;-93
2023/09/24 13:45:57;;;;;;;2.50;2.28;;;;;;;21.67;48.90;94159.25;5937312;24;20025;-93
2023/09/24 13:48:30;;;;;;;4.85;2.78;;;;;;;21.70;48.75;94176.75;5865524;24;20022;-93
2023/09/24 13:50:57;;;;;;;3.17;2.55;;;;;;;21.68;48.89;94182.75;5898158;24;20362;-93
2023/09/24 13:53:37;;;;;;;2.53;1.98;;;;;;;21.69;48.76;94175.25;5900345;24;20356;-93
2023/09/24 13:56:13;;;;;;;4.03;2.17;;;;;;;21.70;48.75;94169.25;5941407;24;20053;-93
2023/09/24 13:58:40;;;;;;;3.50;2.60;;;;;;;21.70;48.88;94177.50;5988381;23;20030;-92
2023/09/24 14:01:07;;;;;;;3.78;2.53;;;;;;;21.74;48.49;94179.97;6058030;23;20041;-93
2023/09/24 14:03:38;;;;;;;5.57;2.60;;;;;;;21.71;48.93;94178.25;6115227;23;20462;-93
2023/09/24 14:06:05;;;;;;;3.08;2.20;;;;;;;21.76;48.61;94177.44;6089454;23;20018;-93
2023/09/24 14:13:41;;;;;;;3.45;2.33;;;;;;;21.71;48.80;94170.72;6125366;23;20028;-92
2023/09/24 14:16:17;;;;;;;2.70;2.20;;;;;;;21.72;48.81;94172.22;6057455;23;20014;-91
2023/09/24 14:18:46;;;;;;;2.63;1.98;;;;;;;21.72;48.55;94172.22;6057053;23;20597;-90
2023/09/24 14:21:19;;;;;;;2.63;2.03;;;;;;;21.75;48.65;94168.44;6035916;23;20187;-94
2023/09/24 14:23:57;;;;;;;3.05;2.35;;;;;;;21.72;48.56;94177.72;6051551;23;20019;-95
2023/09/24 14:26:24;;;;;;;3.17;2.30;;;;;;;21.75;48.63;94175.97;6008094;23;20034;-93
2023/09/24 14:29:15;;;;;;;2.50;1.95;;;;;;;21.78;48.57;94178.44;6048640;23;20030;-94
2023/09/24 14:31:53;;;;;;;2.92;2.45;;;;;;;21.74;48.62;94169.72;5993124;23;20027;-94
2023/09/24 14:34:51;;;;;;;4.03;2.35;;;;;;;21.73;48.69;94181.97;6039820;23;20023;-93
2023/09/24 14:37:31;;;;;;;2.80;2.20;;;;;;;21.76;48.71;94182.97;5990298;23;20023;-93
2023/09/24 14:40:01;;;;;;;3.15;2.45;;;;;;;21.73;48.81;94173.72;5967430;24;20079;-94
2023/09/24 14:42:41;;;;;;;;;;;;;;;21.75;48.66;94179.47;5939255;24;20571;-94
2023/09/24 14:45:34;;;;;;;3.17;1.90;;;;;;;21.73;48.49;94181.97;5945563;24;19914;-94